Time;durP1;ratioP1;P1;durP2;ratioP2;P2;SDS_P1;SDS_P2;PMS_P1;PMS_P2;Temp;Humidity;BMP_temperature;BMP_pressure;BME280_temperature;BME280_humidity;BME280_pressure;Samples;Min_cycle;Max_cycle;Signal;HPM_P1;HPM_P2
2022/03/05 00:01:22;;;;;;;9.08;3.72;;;;;;;-1.59;72.87;99291.41;1652381;85;20969;-69
2022/03/05 00:03:49;;;;;;;6.72;3.83;;;;;;;-1.61;72.50;99296.23;1652152;85;21239;-72
2022/03/05 00:06:19;;;;;;;5.95;3.67;;;;;;;-1.65;72.48;99299.95;1650489;85;21060;-71
2022/03/05 00:08:50;;;;;;;6.17;3.95;;;;;;;-1.66;72.57;99299.67;1649681;85;20981;-71
2022/03/05 00:11:17;;;;;;;8.25;3.95;;;;;;;-1.72;72.36;99293.34;1651471;85;21103;-71
2022/03/05 00:13:45;;;;;;;5.90;3.85;;;;;;;-1.76;72.60;99294.09;1654253;85;21100;-71
2022/03/05 00:16:14;;;;;;;6.85;4.00;;;;;;;-1.80;72.75;99296.45;1653976;85;21127;-67
2022/03/05 00:18:44;;;;;;;4.60;3.35;;;;;;;-1.80;73.06;99295.09;1654300;85;20873;-69
2022/03/05 00:21:12;;;;;;;6.10;3.22;;;;;;;-1.80;73.06;99288.34;1653120;86;21084;-70
2022/03/05 00:23:41;;;;;;;9.05;4.03;;;;;;;-1.75;73.27;99295.72;1650537;86;20941;-69
2022/03/05 00:26:13;;;;;;;12.10;4.25;;;;;;;-1.77;72.92;99291.91;1653350;86;21477;-68
2022/03/05 00:28:40;;;;;;;5.37;3.62;;;;;;;-1.77;73.23;99285.67;1652111;86;21596;-71
2022/03/05 00:31:08;;;;;;;6.53;3.70;;;;;;;-1.76;73.19;99291.38;1649090;85;21072;-69
2022/03/05 00:33:35;;;;;;;7.37;3.77;;;;;;;-1.76;73.18;99288.16;1650840;86;21045;-72
2022/03/05 00:36:03;;;;;;;7.08;4.15;;;;;;;-1.77;73.30;99291.91;1649379;85;21009;-70
2022/03/05 00:38:30;;;;;;;7.10;3.70;;;;;;;-1.75;73.59;99285.73;1653071;85;20981;-72
2022/03/05 00:41:03;;;;;;;;;;;;;;;-1.74;73.37;99288.71;1656736;85;21088;-70
2022/03/05 00:43:30;;;;;;;6.65;3.75;;;;;;;-1.72;73.66;99287.94;1650069;85;20217;-71
2022/03/05 00:46:00;;;;;;;6.03;3.72;;;;;;;-1.67;73.75;99289.91;1653428;85;21055;-70
2022/03/05 00:48:29;;;;;;;5.87;3.65;;;;;;;-1.66;73.65;99293.44;1652029;85;21572;-68
2022/03/05 00:51:00;;;;;;;8.00;3.65;;;;;;;-1.64;73.61;99291.31;1652674;85;20949;-71
2022/03/05 00:53:28;;;;;;;7.33;4.08;;;;;;;-1.61;73.89;99292.17;1650792;86;21015;-70
2022/03/05 00:55:56;;;;;;;7.60;4.10;;;;;;;-1.55;73.62;99289.83;1651552;85;21140;-69
2022/03/05 00:58:23;;;;;;;7.75;4.45;;;;;;;-1.54;73.45;99295.55;1655536;85;21008;-69
2022/03/05 01:00:53;;;;;;;6.42;3.80;;;;;;;-1.51;73.15;99292.87;1657138;85;21032;-70
2022/03/05 01:03:23;;;;;;;7.47;3.83;;;;;;;-1.50;73.19;99291.83;1648857;85;21588;-69
2022/03/05 01:05:53;;;;;;;6.80;3.77;;;;;;;-1.46;73.42;99288.89;1651327;85;22094;-70
2022/03/05 01:08:22;;;;;;;5.35;3.33;;;;;;;-1.40;73.19;99289.81;1639925;85;21414;-70
2022/03/05 01:10:51;;;;;;;4.08;2.85;;;;;;;-1.37;72.98;99294.20;1651797;85;21562;-70
2022/03/05 01:13:22;;;;;;;6.33;3.20;;;;;;;-1.34;72.52;99294.22;1653774;85;21019;-70
2022/03/05 01:15:53;;;;;;;4.65;3.02;;;;;;;-1.34;72.23;99294.22;1651751;85;20984;-71
2022/03/05 01:18:21;;;;;;;7.05;3.77;;;;;;;-1.36;71.90;99290.41;1652010;85;21811;-70
2022/03/05 01:20:51;;;;;;;4.40;3.15;;;;;;;-1.38;72.08;99297.15;1652054;85;20949;-69
2022/03/05 01:23:19;;;;;;;5.22;3.08;;;;;;;-1.42;71.72;99292.77;1650980;85;21190;-72
2022/03/05 01:25:46;;;;;;;5.83;3.00;;;;;;;-1.45;71.74;99292.43;1654217;85;21601;-70
2022/03/05 01:28:16;;;;;;;6.03;3.10;;;;;;;-1.48;71.74;99290.50;1653280;85;21115;-68
2022/03/05 01:30:43;;;;;;;5.72;3.40;;;;;;;-1.50;71.95;99293.17;1654933;85;21512;-70
2022/03/05 01:33:15;;;;;;;5.65;3.10;;;;;;;-1.52;71.98;99293.94;1651695;85;20952;-71
2022/03/05 01:35:39;;;;;;;7.80;3.72;;;;;;;-1.51;72.24;99295.05;1649298;85;21118;-72
2022/03/05 01:38:07;;;;;;;6.58;3.85;;;;;;;-1.49;72.12;99294.28;1651305;85;21687;-69
2022/03/05 01:40:34;;;;;;;6.30;2.98;;;;;;;-1.53;72.11;99299.05;1646738;85;20911;-72
2022/03/05 01:43:03;;;;;;;5.37;3.52;;;;;;;-1.58;72.19;99294.38;1646394;86;21592;-71
2022/03/05 01:45:30;;;;;;;6.58;3.75;;;;;;;-1.61;72.62;99293.52;1629206;85;21595;-71
2022/03/05 01:47:59;;;;;;;7.70;3.72;;;;;;;-1.64;72.76;99292.11;1672881;84;21110;-70
2022/03/05 01:50:27;;;;;;;5.05;3.47;;;;;;;-1.61;72.87;99291.65;1653730;85;20997;-70
2022/03/05 01:52:56;;;;;;;6.00;3.92;;;;;;;-1.62;72.90;99293.25;1613463;87;21016;-70
2022/03/05 01:55:25;;;;;;;5.40;3.42;;;;;;;-1.62;72.96;99296.75;1625278;86;21193;-73
2022/03/05 01:57:52;;;;;;;6.50;3.45;;;;;;;-1.65;73.00;99295.89;1624104;87;20977;-69
2022/03/05 02:00:23;;;;;;;8.55;3.50;;;;;;;-1.66;73.05;99297.48;1626379;87;21068;-73
2022/03/05 02:02:52;;;;;;;7.10;3.42;;;;;;;-1.67;73.06;99292.61;1625784;87;21100;-72
2022/03/05 02:05:23;;;;;;;5.03;3.42;;;;;;;-1.65;73.36;99291.01;1620493;87;21490;-71
2022/03/05 02:07:51;;;;;;;5.50;3.52;;;;;;;-1.63;73.24;99301.05;1627210;86;21655;-71
2022/03/05 02:10:21;;;;;;;5.95;3.72;;;;;;;-1.63;73.41;99293.77;1625995;86;21076;-72
2022/03/05 02:12:49;;;;;;;4.50;3.00;;;;;;;-1.63;73.48;99295.13;1625948;86;21064;-71
2022/03/05 02:15:19;;;;;;;5.17;3.45;;;;;;;-1.61;73.62;99298.41;1628184;87;21213;-72
2022/03/05 02:17:46;;;;;;;5.55;3.35;;;;;;;-1.63;73.37;99297.00;1626020;87;21225;-70
2022/03/05 02:20:13;;;;;;;4.53;2.87;;;;;;;-1.65;73.51;99297.77;1621944;87;21588;-71
2022/03/05 02:22:42;;;;;;;4.95;3.05;;;;;;;-1.63;73.74;99298.34;1627065;87;21000;-71
2022/03/05 02:25:12;;;;;;;5.15;3.75;;;;;;;-1.60;73.70;99301.91;1626612;87;21044;-72
2022/03/05 02:27:39;;;;;;;9.70;3.92;;;;;;;-1.64;73.60;99305.63;1627551;86;21023;-73
2022/03/05 02:30:08;;;;;;;5.67;3.87;;;;;;;-1.71;73.64;99300.37;1618649;87;21552;-72
2022/03/05 02:32:38;;;;;;;6.95;4.10;;;;;;;-1.76;73.87;99303.02;1624886;86;21087;-70
2022/03/05 02:35:06;;;;;;;5.85;3.33;;;;;;;-1.76;74.12;99304.89;1624908;86;21698;-73
2022/03/05 02:37:35;;;;;;;6.45;3.87;;;;;;;-1.75;74.27;99316.80;1625263;87;21119;-72
2022/03/05 02:40:06;;;;;;;8.23;3.60;;;;;;;-1.73;74.34;99309.28;1624507;87;21092;-72
2022/03/05 02:42:35;;;;;;;9.15;3.90;;;;;;;-1.69;74.42;99312.84;1627877;86;20967;-71
2022/03/05 02:45:04;;;;;;;7.10;3.80;;;;;;;-1.66;74.48;99311.00;1628142;86;21548;-72
2022/03/05 02:47:30;;;;;;;7.70;3.77;;;;;;;-1.66;74.52;99315.05;1628552;87;21150;-70
2022/03/05 02:49:57;;;;;;;6.20;3.92;;;;;;;-1.64;74.75;99317.78;1624172;87;21096;-71
2022/03/05 02:52:24;;;;;;;6.08;3.42;;;;;;;-1.63;74.16;99310.51;1626390;87;21007;-72
2022/03/05 02:54:51;;;;;;;5.10;3.40;;;;;;;-1.65;74.18;99314.80;1623020;86;21438;-69
2022/03/05 02:57:18;;;;;;;3.85;2.85;;;;;;;-1.62;74.46;99317.56;1625419;87;22136;-71
2022/03/05 02:59:47;;;;;;;4.67;3.40;;;;;;;-1.58;74.22;99313.30;1623998;87;21120;-67
2022/03/05 03:02:14;;;;;;;5.05;3.00;;;;;;;-1.55;74.08;99321.47;1626017;86;20989;-71
2022/03/05 03:04:42;;;;;;;4.53;2.90;;;;;;;-1.55;74.13;99314.71;1625045;87;21021;-72
2022/03/05 03:07:13;;;;;;;5.72;2.90;;;;;;;-1.50;74.29;99315.59;1625923;86;21074;-70
2022/03/05 03:09:42;;;;;;;5.83;3.52;;;;;;;-1.47;74.15;99310.25;1628945;86;21570;-71
2022/03/05 03:12:10;;;;;;;6.95;3.45;;;;;;;-1.47;74.21;99317.80;1627453;86;21023;-70
2022/03/05 03:14:41;;;;;;;7.05;3.80;;;;;;;-1.43;74.39;99322.19;1610412;87;21139;-72
2022/03/05 03:17:10;;;;;;;4.37;2.98;;;;;;;-1.40;74.30;99327.10;1627372;87;21053;-68
2022/03/05 03:19:38;;;;;;;6.80;3.37;;;;;;;-1.38;73.99;99335.00;1624998;87;20944;-71
2022/03/05 03:22:08;;;;;;;3.95;2.85;;;;;;;-1.38;73.86;99329.04;1627203;87;21532;-72
2022/03/05 03:24:38;;;;;;;4.87;3.22;;;;;;;-1.39;73.60;99334.69;1612619;87;21196;-72
2022/03/05 03:27:07;;;;;;;4.80;2.90;;;;;;;-1.38;73.90;99335.00;1625250;86;21020;-71
2022/03/05 03:29:36;;;;;;;3.60;2.80;;;;;;;-1.29;74.04;99335.38;1615266;87;21121;-74
2022/03/05 03:32:05;;;;;;;5.85;2.90;;;;;;;-1.23;73.38;99335.22;1624679;87;21043;-70
2022/03/05 03:34:32;;;;;;;4.75;2.72;;;;;;;-1.24;73.20;99338.17;1626779;87;21986;-72
2022/03/05 03:37:01;;;;;;;4.50;2.85;;;;;;;-1.26;73.19;99343.00;1621901;87;21445;-72
2022/03/05 03:39:31;;;;;;;4.78;3.08;;;;;;;-1.26;73.00;99346.53;1626353;87;21709;-71
2022/03/05 03:41:57;;;;;;;5.40;2.80;;;;;;;-1.33;72.78;99346.42;1627524;86;21071;-70
2022/03/05 03:44:26;;;;;;;4.05;2.67;;;;;;;-1.37;73.18;99346.91;1624912;86;21084;-71
2022/03/05 03:46:53;;;;;;;5.22;2.50;;;;;;;-1.35;73.28;99343.41;1624325;87;21121;-68
2022/03/05 03:49:27;;;;;;;6.47;3.30;;;;;;;-1.30;73.22;99346.75;1629150;86;21675;-70
2022/03/05 03:51:55;;;;;;;6.85;3.10;;;;;;;-1.27;73.36;99347.61;1620623;86;21104;-71
2022/03/05 03:54:25;;;;;;;7.28;3.10;;;;;;;-1.18;73.60;99349.91;1626673;86;21004;-72
2022/03/05 03:56:53;;;;;;;8.13;3.30;;;;;;;-1.17;73.17;99345.59;1630848;86;21124;-69
2022/03/05 03:59:21;;;;;;;4.62;2.45;;;;;;;-1.18;72.98;99356.14;1623023;86;21416;-72
2022/03/05 04:01:51;;;;;;;5.45;3.60;;;;;;;-1.19;72.77;99359.06;1622613;87;21065;-71
2022/03/05 04:04:20;;;;;;;4.83;2.65;;;;;;;-1.24;72.94;99355.23;1624521;86;21029;-71
2022/03/05 04:09:35;;;;;;;4.58;3.30;;;;;;;-1.21;73.03;99356.61;1623334;87;20973;-70
2022/03/05 04:12:07;;;;;;;4.95;3.55;;;;;;;-1.21;73.00;99354.45;1627197;87;21064;-73
2022/03/05 04:14:38;;;;;;;5.85;3.52;;;;;;;-1.26;72.93;99353.81;1623192;87;20984;-71
2022/03/05 04:17:11;;;;;;;3.65;2.47;;;;;;;-1.27;73.07;99360.30;1622635;87;21572;-70
2022/03/05 04:19:40;;;;;;;5.60;2.67;;;;;;;-1.27;73.25;99359.78;1627484;86;21015;-71
2022/03/05 04:22:07;;;;;;;4.40;2.67;;;;;;;-1.24;73.48;99367.92;1624603;86;21061;-71
2022/03/05 04:24:36;;;;;;;5.05;2.87;;;;;;;-1.19;73.30;99367.17;1624551;87;21111;-71
2022/03/05 04:27:03;;;;;;;5.40;2.58;;;;;;;-1.16;73.50;99371.56;1625953;87;21154;-72
2022/03/05 04:29:34;;;;;;;5.78;2.60;;;;;;;-1.09;73.29;99367.90;1626266;87;22329;-69
2022/03/05 04:32:03;;;;;;;3.65;2.40;;;;;;;-1.13;72.87;99372.45;1624717;86;21091;-70
2022/03/05 04:34:32;;;;;;;6.62;3.27;;;;;;;-1.14;73.02;99378.08;1623980;87;20985;-71
2022/03/05 04:36:59;;;;;;;8.53;4.20;;;;;;;-1.16;72.92;99376.97;1625904;87;22210;-70
2022/03/05 04:39:28;;;;;;;8.28;3.35;;;;;;;-1.15;73.03;99384.04;1626508;87;21459;-72
2022/03/05 04:41:55;;;;;;;3.83;2.37;;;;;;;-1.13;73.08;99381.09;1624031;86;21085;-72
2022/03/05 04:44:23;;;;;;;4.53;2.35;;;;;;;-1.12;73.29;99383.55;1617972;86;21096;-72
2022/03/05 04:46:52;;;;;;;3.52;2.02;;;;;;;-1.07;72.82;99388.21;1626801;86;21110;-71
2022/03/05 04:49:20;;;;;;;3.62;2.10;;;;;;;-1.10;72.69;99391.41;1592947;87;21902;-71
2022/03/05 04:51:49;;;;;;;5.30;2.72;;;;;;;-1.13;72.76;99392.73;1624494;87;20970;-69
2022/03/05 04:54:18;;;;;;;3.47;2.12;;;;;;;-1.17;72.86;99393.45;1575225;88;21561;-70
2022/03/05 04:56:46;;;;;;;3.62;2.08;;;;;;;-1.15;73.15;99394.03;1623386;87;21646;-71
2022/03/05 04:59:14;;;;;;;3.80;1.95;;;;;;;-1.12;73.14;99403.00;1624443;86;21088;-71
2022/03/05 05:01:41;;;;;;;2.90;1.65;;;;;;;-1.09;73.12;99404.41;1624411;87;21427;-70
2022/03/05 05:04:09;;;;;;;3.12;2.05;;;;;;;-1.08;72.83;99408.22;1623413;87;21138;-70
2022/03/05 05:06:39;;;;;;;6.35;2.10;;;;;;;-1.11;72.83;99408.72;1626375;87;21485;-68
2022/03/05 05:09:06;;;;;;;3.33;2.00;;;;;;;-1.10;72.70;99419.81;1625433;87;21516;-73
2022/03/05 05:11:33;;;;;;;3.65;1.90;;;;;;;-1.11;72.85;99420.33;1626649;87;21169;-70
2022/03/05 05:14:01;;;;;;;2.90;1.85;;;;;;;-1.06;72.87;99420.15;1625596;87;21268;-70
2022/03/05 05:16:28;;;;;;;7.55;2.15;;;;;;;-1.03;72.60;99427.77;1627506;87;21533;-71
2022/03/05 05:21:45;;;;;;;3.58;1.92;;;;;;;-1.09;72.18;99436.87;1623773;87;21057;-71
2022/03/05 05:24:14;;;;;;;4.42;1.95;;;;;;;-1.16;72.24;99442.44;1617730;87;20882;-70
2022/03/05 05:26:42;;;;;;;4.30;1.90;;;;;;;-1.15;72.74;99446.77;1625583;87;21068;-68
2022/03/05 05:29:12;;;;;;;4.80;2.47;;;;;;;-1.13;72.53;99448.70;1623982;87;21123;-69
2022/03/05 05:31:41;;;;;;;4.05;2.62;;;;;;;-1.14;72.66;99446.52;1625708;86;21499;-71
2022/03/05 05:34:08;;;;;;;2.85;1.82;;;;;;;-1.12;72.60;99451.16;1627072;87;21131;-70
2022/03/05 05:36:38;;;;;;;3.17;2.12;;;;;;;-1.13;72.18;99452.23;1626546;87;21327;-70
2022/03/05 05:39:09;;;;;;;4.42;2.22;;;;;;;-1.17;72.24;99455.65;1627846;86;21576;-72
2022/03/05 05:41:38;;;;;;;2.60;1.70;;;;;;;-1.17;72.33;99447.54;1626448;86;20909;-68
2022/03/05 05:44:07;;;;;;;3.60;2.08;;;;;;;-1.19;72.06;99455.89;1600113;87;21097;-72
2022/03/05 05:46:34;;;;;;;4.08;2.17;;;;;;;-1.16;72.30;99451.34;1628609;86;21146;-71
2022/03/05 05:49:04;;;;;;;4.33;2.30;;;;;;;-1.13;72.33;99456.30;1626303;87;21040;-71
2022/03/05 05:51:32;;;;;;;3.67;2.50;;;;;;;-1.08;72.42;99460.14;1625180;87;21122;-69
2022/03/05 05:54:00;;;;;;;3.47;2.20;;;;;;;-1.02;72.21;99461.86;1611147;87;21049;-71
2022/03/05 05:56:27;;;;;;;5.60;2.35;;;;;;;-1.00;72.03;99460.56;1629073;86;20991;-69
2022/03/05 05:58:56;;;;;;;3.20;2.00;;;;;;;-0.98;72.21;99458.97;1626178;87;20987;-69
2022/03/05 06:01:23;;;;;;;3.30;1.85;;;;;;;-0.92;71.91;99469.34;1623488;87;21317;-71
2022/03/05 06:03:53;;;;;;;2.30;1.40;;;;;;;-0.88;71.72;99464.55;1622834;87;21082;-69
2022/03/05 06:06:21;;;;;;;2.27;1.80;;;;;;;-0.86;71.13;99464.30;1623323;87;20969;-68
2022/03/05 06:08:49;;;;;;;4.55;1.77;;;;;;;-0.90;71.08;99480.20;1625591;87;20990;-71
2022/03/05 06:11:19;;;;;;;3.40;1.70;;;;;;;-0.88;71.05;99479.44;1627207;86;21037;-69
2022/03/05 06:13:47;;;;;;;1.95;1.35;;;;;;;-0.87;70.50;99478.91;1625688;87;21568;-69
2022/03/05 06:16:16;;;;;;;3.65;1.98;;;;;;;-0.87;70.47;99486.47;1622076;87;21268;-72
2022/03/05 06:18:45;;;;;;;4.47;2.50;;;;;;;-0.82;70.39;99484.93;1628348;87;21060;-70
2022/03/05 06:21:14;;;;;;;2.60;1.70;;;;;;;-0.80;69.93;99497.14;1625351;86;21403;-69
2022/03/05 06:23:42;;;;;;;2.98;1.87;;;;;;;-0.82;69.86;99494.41;1626774;86;20975;-73
2022/03/05 06:26:10;;;;;;;1.82;1.42;;;;;;;-0.85;69.92;99490.28;1626077;87;21085;-71
2022/03/05 06:28:39;;;;;;;1.72;1.35;;;;;;;-0.81;69.68;99494.68;1626005;87;21119;-71
2022/03/05 06:31:09;;;;;;;3.92;1.57;;;;;;;-0.81;69.43;99500.92;1628440;87;21051;-72
2022/03/05 06:33:40;;;;;;;1.40;1.00;;;;;;;-0.80;69.65;99506.61;1619608;87;21052;-71
2022/03/05 06:36:07;;;;;;;2.98;1.40;;;;;;;-0.78;69.19;99506.36;1626970;86;21070;-72
2022/03/05 06:38:36;;;;;;;2.12;1.40;;;;;;;-0.79;68.94;99508.79;1582793;89;21013;-72
2022/03/05 06:41:04;;;;;;;2.62;1.50;;;;;;;-0.82;68.98;99518.75;1626244;87;21257;-70
2022/03/05 06:43:31;;;;;;;3.70;1.80;;;;;;;-0.84;69.31;99514.94;1626553;86;20987;-72
2022/03/05 06:45:59;;;;;;;2.85;1.82;;;;;;;-0.79;69.35;99509.62;1626366;86;21157;-72
2022/03/05 06:48:27;;;;;;;2.08;1.20;;;;;;;-0.75;69.21;99516.17;1626542;86;21186;-71
2022/03/05 06:50:57;;;;;;;2.17;1.20;;;;;;;-0.74;68.90;99518.35;1627834;87;21098;-71
2022/03/05 06:53:24;;;;;;;1.65;1.00;;;;;;;-0.76;69.11;99524.53;1623464;87;21200;-71
2022/03/05 06:55:51;;;;;;;1.75;1.20;;;;;;;-0.72;69.13;99528.41;1621490;87;21068;-70
2022/03/05 06:58:20;;;;;;;1.77;1.42;;;;;;;-0.71;68.83;99525.98;1621644;87;21458;-70
2022/03/05 07:00:47;;;;;;;1.50;1.27;;;;;;;-0.69;68.61;99531.97;1623193;87;21015;-71
2022/03/05 07:03:14;;;;;;;3.27;1.25;;;;;;;-0.72;67.71;99516.23;1627344;86;20960;-72
2022/03/05 07:05:41;;;;;;;3.12;1.60;;;;;;;-0.79;67.83;99520.45;1630076;86;21109;-71
2022/03/05 07:08:10;;;;;;;2.98;1.40;;;;;;;-0.77;68.10;99536.44;1628054;87;21552;-72
2022/03/05 07:10:38;;;;;;;2.60;1.60;;;;;;;-0.75;68.15;99533.77;1623404;87;21124;-72
2022/03/05 07:13:24;;;;;;;3.12;1.55;;;;;;;-0.72;67.83;99535.17;1663654;84;21017;-70
2022/03/05 07:15:53;;;;;;;5.78;1.62;;;;;;;-0.70;68.04;99537.63;1639774;86;21008;-73
2022/03/05 07:18:20;;;;;;;5.80;1.50;;;;;;;-0.71;67.48;99530.56;1636856;85;21577;-72
2022/03/05 07:20:47;;;;;;;2.37;1.90;;;;;;;-0.72;67.40;99535.70;1638843;86;21110;-72
2022/03/05 07:23:14;;;;;;;2.10;1.35;;;;;;;-0.71;67.47;99542.22;1698327;83;20981;-72
2022/03/05 07:25:43;;;;;;;2.40;1.07;;;;;;;-0.72;67.44;99535.70;1691400;83;20984;-71
2022/03/05 07:28:12;;;;;;;2.87;1.92;;;;;;;-0.69;67.48;99543.32;1696339;82;21117;-69
2022/03/05 07:30:42;;;;;;;5.28;1.72;;;;;;;-0.65;67.38;99547.20;1708489;83;21119;-71
2022/03/05 07:33:09;;;;;;;3.15;1.77;;;;;;;-0.60;67.72;99549.99;1718776;83;20953;-73
2022/03/05 07:35:36;;;;;;;3.37;1.80;;;;;;;-0.53;67.18;99545.77;1703234;81;21502;-71
2022/03/05 07:38:05;;;;;;;2.05;1.30;;;;;;;-0.51;66.79;99547.67;1694716;83;21051;-69
2022/03/05 07:40:32;;;;;;;4.90;1.55;;;;;;;-0.47;66.67;99550.72;1686466;82;21588;-72
2022/03/05 07:42:59;;;;;;;2.70;1.20;;;;;;;-0.47;66.18;99552.07;1706187;83;21766;-69
2022/03/05 07:45:26;;;;;;;1.42;1.10;;;;;;;-0.52;66.13;99550.94;1711875;81;20968;-70
2022/03/05 07:47:53;;;;;;;2.40;1.32;;;;;;;-0.52;66.00;99552.29;1726064;81;21107;-71
2022/03/05 07:50:20;;;;;;;1.90;1.40;;;;;;;-0.48;66.12;99547.73;1732758;80;21055;-71
2022/03/05 07:52:49;;;;;;;3.12;1.47;;;;;;;-0.47;65.99;99552.90;1690351;81;21041;-71
2022/03/05 07:55:17;;;;;;;1.85;1.20;;;;;;;-0.47;65.98;99555.61;1736968;81;21082;-70
2022/03/05 07:57:46;;;;;;;2.30;1.10;;;;;;;-0.50;65.60;99552.88;1731773;81;20988;-70
2022/03/05 08:00:14;;;;;;;5.83;1.52;;;;;;;-0.52;66.05;99549.58;1725398;81;20905;-69
2022/03/05 08:02:41;;;;;;;3.45;1.27;;;;;;;-0.46;66.33;99547.76;1749593;81;21421;-69
2022/03/05 08:05:10;;;;;;;2.90;1.40;;;;;;;-0.40;66.07;99549.50;1738219;81;20996;-68
2022/03/05 08:07:39;;;;;;;3.22;1.60;;;;;;;-0.40;65.65;99548.67;1729007;81;21901;-70
2022/03/05 08:10:07;;;;;;;2.15;1.27;;;;;;;-0.41;65.72;99560.58;1717861;81;21016;-72
2022/03/05 08:12:36;;;;;;;2.37;1.40;;;;;;;-0.45;65.67;99554.00;1752679;80;20960;-70
2022/03/05 08:15:04;;;;;;;1.65;1.35;;;;;;;-0.40;65.93;99556.27;1746362;81;21068;-70
2022/03/05 08:17:31;;;;;;;1.95;1.45;;;;;;;-0.37;65.58;99565.25;1731980;81;21042;-68
2022/03/05 08:19:59;;;;;;;2.33;1.65;;;;;;;-0.38;65.68;99556.03;1740136;81;21312;-71
2022/03/05 08:22:26;;;;;;;2.47;1.25;;;;;;;-0.35;66.06;99562.30;1720233;81;21031;-72
2022/03/05 08:24:55;;;;;;;3.72;1.70;;;;;;;-0.26;66.29;99554.03;1725738;81;21008;-72
2022/03/05 08:27:22;;;;;;;2.15;1.40;;;;;;;-0.20;66.11;99553.59;1743056;81;21098;-71
2022/03/05 08:29:49;;;;;;;1.90;1.35;;;;;;;-0.16;66.09;99564.76;1750262;81;21064;-70
2022/03/05 08:32:19;;;;;;;8.23;1.82;;;;;;;-0.15;65.91;99561.80;1714800;81;21174;-71
2022/03/05 08:34:48;;;;;;;2.47;1.20;;;;;;;-0.10;65.84;99562.41;1718913;81;20952;-69
2022/03/05 08:37:18;;;;;;;3.17;1.55;;;;;;;-0.11;65.61;99567.55;1714280;81;20954;-70
2022/03/05 08:39:45;;;;;;;3.25;1.32;;;;;;;-0.13;65.80;99573.21;1724090;81;20983;-70
2022/03/05 08:42:12;;;;;;;2.60;1.55;;;;;;;-0.13;65.27;99571.03;1738146;81;21021;-69
2022/03/05 08:44:40;;;;;;;3.60;1.02;;;;;;;-0.16;65.53;99572.36;1731155;80;21658;-69
2022/03/05 08:47:07;;;;;;;2.25;1.50;;;;;;;-0.13;65.57;99572.38;1725771;81;20989;-72
2022/03/05 08:49:34;;;;;;;2.10;1.30;;;;;;;-0.09;65.50;99570.83;1712387;81;21024;-70
2022/03/05 08:52:05;;;;;;;2.87;1.90;;;;;;;-0.03;65.68;99573.06;1733549;81;20989;-71
2022/03/05 08:54:36;;;;;;;3.22;1.30;;;;;;;0.04;64.92;99574.25;1732967;81;21437;-71
2022/03/05 08:57:05;;;;;;;1.85;1.30;;;;;;;0.04;65.29;99579.14;1717308;81;21722;-71
2022/03/05 08:59:31;;;;;;;1.98;1.47;;;;;;;0.12;65.12;99581.95;1722676;81;21031;-71
2022/03/05 09:02:01;;;;;;;1.80;1.25;;;;;;;0.21;65.31;99583.70;1738177;80;21004;-69
2022/03/05 09:04:28;;;;;;;4.00;1.70;;;;;;;0.28;64.87;99591.14;1724084;81;21481;-71
2022/03/05 09:06:55;;;;;;;7.70;1.85;;;;;;;0.27;63.98;99585.44;1690037;82;21456;-70
2022/03/05 09:09:21;;;;;;;3.37;1.55;;;;;;;0.29;64.35;99591.41;1712572;81;21226;-73
2022/03/05 09:11:50;;;;;;;9.15;1.70;;;;;;;0.42;64.54;99589.42;1741360;81;21001;-71
2022/03/05 09:14:16;;;;;;;1.65;1.17;;;;;;;0.54;64.33;99592.02;1743658;81;21021;-71
2022/03/05 09:16:46;;;;;;;3.45;1.25;;;;;;;0.59;63.37;99605.64;1717938;81;21177;-72
2022/03/05 09:19:16;;;;;;;3.80;1.87;;;;;;;0.62;63.54;99592.10;1718018;81;21119;-68
2022/03/05 09:21:43;;;;;;;2.90;1.45;;;;;;;0.67;62.92;99598.42;1739081;81;21149;-70
2022/03/05 09:24:10;;;;;;;2.47;1.27;;;;;;;0.69;63.27;99603.06;1703939;82;21004;-72
2022/03/05 09:26:37;;;;;;;3.15;1.72;;;;;;;0.77;62.41;99604.51;1751445;81;20902;-73
2022/03/05 09:29:04;;;;;;;2.22;1.60;;;;;;;0.75;62.52;99609.36;1715363;82;21061;-73
2022/03/05 09:31:32;;;;;;;1.90;1.32;;;;;;;0.64;61.18;99612.49;1725227;81;20968;-72
2022/03/05 09:33:59;;;;;;;2.22;1.30;;;;;;;0.45;61.74;99613.31;1729049;81;21878;-73
2022/03/05 09:36:27;;;;;;;2.47;1.47;;;;;;;0.41;61.96;99618.97;1721922;81;20965;-71
2022/03/05 09:38:54;;;;;;;3.83;1.40;;;;;;;0.35;62.52;99618.90;1717594;81;20960;-72
2022/03/05 09:41:22;;;;;;;1.37;1.10;;;;;;;0.43;63.10;99619.52;1708003;81;21022;-70
2022/03/05 09:43:49;;;;;;;3.17;1.40;;;;;;;0.54;63.36;99623.20;1727748;81;21127;-73
2022/03/05 09:46:26;;;;;;;2.37;1.62;;;;;;;0.58;62.91;99623.80;1733800;81;20949;-68
2022/03/05 09:48:56;;;;;;;1.92;1.47;;;;;;;0.57;62.82;99616.75;1725318;81;21074;-72
2022/03/05 09:51:23;;;;;;;3.02;1.32;;;;;;;0.55;62.75;99620.23;1730598;81;21494;-73
2022/03/05 09:53:52;;;;;;;5.10;1.42;;;;;;;0.60;63.17;99618.95;1738040;81;21501;-73
2022/03/05 09:56:19;;;;;;;3.22;1.67;;;;;;;0.56;62.11;99622.42;1714496;82;21041;-71
2022/03/05 09:58:47;;;;;;;2.55;1.42;;;;;;;0.43;62.38;99618.99;1693907;81;21388;-70
2022/03/05 10:01:16;;;;;;;2.60;1.55;;;;;;;0.38;62.58;99622.16;1742045;81;21108;-71
2022/03/05 10:03:55;;;;;;;2.90;1.60;;;;;;;0.40;63.11;99624.09;1719094;81;21136;-73
2022/03/05 10:06:29;;;;;;;2.60;1.40;;;;;;;0.45;62.87;99622.81;1716247;81;21012;-72
2022/03/05 10:08:58;;;;;;;3.95;1.90;;;;;;;0.46;62.89;99628.53;1736452;81;21076;-72
2022/03/05 10:11:27;;;;;;;2.33;1.42;;;;;;;0.39;62.87;99627.88;1724184;81;21103;-72
2022/03/05 10:13:59;;;;;;;5.85;2.17;;;;;;;0.29;63.06;99631.27;1739696;81;21108;-72
2022/03/05 10:16:33;;;;;;;5.80;2.45;;;;;;;0.22;63.41;99632.25;1730958;81;20964;-74
2022/03/05 10:19:21;;;;;;;4.50;1.98;;;;;;;0.14;63.15;99634.03;1726524;81;21617;-69
2022/03/05 10:22:06;;;;;;;8.33;2.83;;;;;;;0.08;63.58;99633.67;1712845;81;20940;-70
2022/03/05 10:24:38;;;;;;;;;;;;;;;0.07;63.87;99638.81;1751471;81;21095;-68
2022/03/05 10:27:08;;;;;;;3.25;1.92;;;;;;;0.02;64.08;99632.76;1751265;81;20260;-70
2022/03/05 10:29:39;;;;;;;4.33;2.22;;;;;;;-0.03;64.39;99634.86;1745235;81;21698;-70
2022/03/05 10:32:15;;;;;;;2.47;1.80;;;;;;;-0.03;64.56;99629.97;1733478;81;21060;-71
2022/03/05 10:34:53;;;;;;;2.30;1.50;;;;;;;0.02;64.51;99634.67;1724085;81;21019;-72
2022/03/05 10:37:21;;;;;;;2.67;1.75;;;;;;;0.05;64.37;99632.26;1724919;81;21422;-72
2022/03/05 10:39:51;;;;;;;1.70;1.10;;;;;;;0.06;64.64;99630.38;1689707;81;21053;-73
2022/03/05 10:42:25;;;;;;;2.42;1.70;;;;;;;0.14;64.48;99628.61;1714514;81;21008;-72
2022/03/05 10:45:06;;;;;;;2.40;1.37;;;;;;;0.20;64.42;99630.88;1719865;81;21040;-74
2022/03/05 10:47:46;;;;;;;1.72;1.15;;;;;;;0.27;63.93;99623.39;1715563;81;20889;-72
2022/03/05 10:50:29;;;;;;;2.08;1.62;;;;;;;0.27;64.04;99625.27;1738697;81;21534;-70
2022/03/05 10:53:00;;;;;;;2.62;1.50;;;;;;;0.33;64.10;99622.91;1739208;81;21021;-72
2022/03/05 10:55:38;;;;;;;2.42;1.52;;;;;;;0.31;63.80;99616.91;1696310;81;20960;-68
2022/03/05 10:58:14;;;;;;;3.70;1.85;;;;;;;0.28;63.75;99625.55;1731596;81;20997;-72
2022/03/05 11:00:42;;;;;;;2.30;1.72;;;;;;;0.28;64.31;99618.77;1717592;81;20900;-71
2022/03/05 11:03:13;;;;;;;3.77;1.77;;;;;;;0.33;63.80;99625.63;1712067;81;21060;-74
2022/03/05 11:05:44;;;;;;;2.42;1.47;;;;;;;0.33;63.97;99622.91;1693336;81;21004;-73
2022/03/05 11:08:14;;;;;;;2.87;1.72;;;;;;;0.36;64.00;99620.53;1721321;81;21116;-74
2022/03/05 11:10:42;;;;;;;5.17;2.70;;;;;;;0.40;63.76;99626.80;1746892;81;21060;-73
2022/03/05 11:13:14;;;;;;;4.47;2.37;;;;;;;0.37;63.74;99622.72;1730789;81;21523;-70
2022/03/05 11:15:45;;;;;;;3.60;2.08;;;;;;;0.39;64.21;99627.36;1743422;81;21436;-67
2022/03/05 11:18:18;;;;;;;3.42;2.37;;;;;;;0.45;64.50;99627.70;1694107;81;20961;-71
2022/03/05 11:20:49;;;;;;;4.53;3.00;;;;;;;0.50;64.29;99634.25;1714610;81;21088;-72
2022/03/05 11:23:20;;;;;;;4.03;2.40;;;;;;;0.42;63.66;99631.45;1713398;81;20908;-72
2022/03/05 11:25:53;;;;;;;5.22;2.83;;;;;;;0.26;63.57;99627.16;1741207;81;21050;-72
2022/03/05 11:28:22;;;;;;;6.12;2.92;;;;;;;0.16;64.19;99631.89;1734895;81;21858;-73
2022/03/05 11:30:54;;;;;;;4.22;1.95;;;;;;;0.06;64.60;99621.73;1715817;81;21099;-73
2022/03/05 11:33:38;;;;;;;6.70;3.87;;;;;;;0.08;65.07;99629.61;1730549;80;21515;-71
2022/03/05 11:36:13;;;;;;;6.85;3.95;;;;;;;0.14;65.14;99623.73;1694985;83;21559;-73
2022/03/05 11:38:43;;;;;;;3.80;2.65;;;;;;;0.17;65.05;99622.68;1709609;81;20965;-73
2022/03/05 11:41:27;;;;;;;4.87;2.47;;;;;;;0.16;64.38;99621.05;1745404;81;21138;-69
2022/03/05 11:44:14;;;;;;;3.40;2.03;;;;;;;0.17;64.38;99618.62;1678128;81;21067;-71
2022/03/05 11:46:44;;;;;;;5.92;3.00;;;;;;;0.19;64.53;99630.56;1733950;81;21084;-73
2022/03/05 11:49:21;;;;;;;4.15;2.60;;;;;;;0.21;64.04;99625.20;1739056;81;21003;-74
2022/03/05 11:51:54;;;;;;;;;;;;;;;0.26;64.20;99618.22;1745960;80;21560;-69